createdAt,value
2018-12-12T00:00:04.510Z,15.20
2018-12-12T00:02:32.068Z,15.20
2018-12-12T00:05:01.820Z,15.20
2018-12-12T00:07:29.801Z,15.20
2018-12-12T00:09:57.469Z,15.20
2018-12-12T00:12:25.210Z,15.20
2018-12-12T00:14:52.776Z,15.20
2018-12-12T00:17:20.393Z,15.20
2018-12-12T00:19:48.110Z,15.20
2018-12-12T00:22:16.733Z,15.30
2018-12-12T00:24:44.387Z,15.30
2018-12-12T00:27:12.004Z,15.20
2018-12-12T00:29:39.920Z,15.20
2018-12-12T00:32:07.521Z,15.20
2018-12-12T00:34:35.159Z,15.30
2018-12-12T00:37:02.858Z,15.30
2018-12-12T00:39:30.570Z,15.30
2018-12-12T00:41:58.413Z,15.20
2018-12-12T00:44:26.095Z,15.20
2018-12-12T00:46:54.391Z,15.20
2018-12-12T00:49:22.184Z,15.30
2018-12-12T00:51:51.197Z,15.20
2018-12-12T00:54:18.802Z,15.20
2018-12-12T00:56:46.408Z,15.20
2018-12-12T00:59:14.005Z,15.20
2018-12-12T01:01:41.595Z,15.30
2018-12-12T01:04:09.251Z,15.20
2018-12-12T01:06:38.424Z,15.20
2018-12-12T01:09:06.759Z,15.20
2018-12-12T01:11:40.340Z,15.20
2018-12-12T01:14:09.375Z,15.20
2018-12-12T01:16:37.063Z,15.20
2018-12-12T01:19:04.913Z,15.30
2018-12-12T01:21:32.751Z,15.20
2018-12-12T01:24:00.411Z,15.20
2018-12-12T01:26:28.130Z,15.20
2018-12-12T01:28:55.777Z,15.20
2018-12-12T01:31:23.548Z,15.20
2018-12-12T01:33:51.218Z,15.20
2018-12-12T01:36:18.955Z,15.20
2018-12-12T01:38:46.609Z,15.20
2018-12-12T01:41:14.217Z,15.20
2018-12-12T01:43:41.867Z,15.20
2018-12-12T01:46:09.471Z,15.20
2018-12-12T01:48:36.998Z,15.20
2018-12-12T01:51:04.647Z,15.20
2018-12-12T01:53:33.140Z,15.20
2018-12-12T01:56:00.959Z,15.20
2018-12-12T01:58:28.634Z,15.20
2018-12-12T02:00:56.274Z,15.20
2018-12-12T02:03:23.858Z,15.20
2018-12-12T02:05:51.541Z,15.20
2018-12-12T02:08:19.284Z,15.20
2018-12-12T02:10:47.047Z,15.20
2018-12-12T02:13:33.917Z,15.20
2018-12-12T02:16:02.280Z,15.20
2018-12-12T02:18:30.424Z,15.20
2018-12-12T02:20:58.023Z,15.20
2018-12-12T02:23:25.662Z,15.20
2018-12-12T02:25:53.317Z,15.20
2018-12-12T02:28:21.031Z,15.20
2018-12-12T02:30:48.685Z,15.20
2018-12-12T02:33:16.312Z,15.20
2018-12-12T02:35:44.076Z,15.30
2018-12-12T02:38:11.900Z,15.20
2018-12-12T02:40:40.036Z,15.20
2018-12-12T02:43:07.753Z,15.20
2018-12-12T02:45:35.314Z,15.20
2018-12-12T02:48:02.935Z,15.20
2018-12-12T02:50:30.612Z,15.20
2018-12-12T02:52:58.276Z,15.20
2018-12-12T02:55:25.862Z,15.20
2018-12-12T02:57:53.564Z,15.20
2018-12-12T03:00:21.229Z,15.20
2018-12-12T03:02:48.964Z,15.20
2018-12-12T03:05:16.641Z,15.20
2018-12-12T03:07:44.479Z,15.20
2018-12-12T03:10:12.017Z,15.10
2018-12-12T03:12:39.717Z,15.20
2018-12-12T03:15:07.469Z,15.20
2018-12-12T03:17:36.836Z,15.20
2018-12-12T03:22:39.336Z,15.20
2018-12-12T03:25:07.044Z,15.20
2018-12-12T03:27:34.619Z,15.20
2018-12-12T03:30:02.206Z,15.20
2018-12-12T03:32:31.033Z,15.20
2018-12-12T03:34:58.760Z,15.20
2018-12-12T03:37:26.375Z,15.20
2018-12-12T03:39:54.865Z,15.20
2018-12-12T03:42:23.112Z,15.20
2018-12-12T03:44:50.769Z,15.20
2018-12-12T03:47:18.318Z,15.20
2018-12-12T03:49:46.401Z,15.20
2018-12-12T03:52:14.025Z,15.20
2018-12-12T03:54:41.569Z,15.20
2018-12-12T03:57:09.114Z,15.20
2018-12-12T03:59:36.866Z,15.20
2018-12-12T04:02:04.883Z,15.20
2018-12-12T04:04:32.426Z,15.20
2018-12-12T04:07:00.148Z,15.20
2018-12-12T04:09:27.926Z,15.20
2018-12-12T04:11:55.716Z,15.20
2018-12-12T04:14:23.367Z,15.20
2018-12-12T04:16:50.987Z,15.20
2018-12-12T04:19:18.595Z,15.20
2018-12-12T04:21:48.421Z,15.20
2018-12-12T04:24:15.985Z,15.20
2018-12-12T04:26:43.534Z,15.20
2018-12-12T04:29:11.117Z,15.20
2018-12-12T04:31:39.417Z,15.20
2018-12-12T04:34:06.960Z,15.20
2018-12-12T04:36:34.545Z,15.20
2018-12-12T04:39:02.282Z,15.20
2018-12-12T04:41:31.123Z,15.20
2018-12-12T04:43:58.726Z,15.20
2018-12-12T04:46:26.427Z,15.20
2018-12-12T04:48:53.985Z,15.20
2018-12-12T04:51:21.625Z,15.20
2018-12-12T04:53:49.290Z,15.20
2018-12-12T04:56:16.938Z,15.20
2018-12-12T04:58:44.815Z,15.20
2018-12-12T05:01:12.478Z,15.20
2018-12-12T05:03:40.179Z,15.20
2018-12-12T05:06:07.666Z,15.20
2018-12-12T05:08:35.203Z,15.20
2018-12-12T05:11:02.786Z,15.20
2018-12-12T05:13:30.430Z,15.20
2018-12-12T05:15:59.401Z,15.20
2018-12-12T05:18:26.970Z,15.20
2018-12-12T05:20:54.483Z,15.20
2018-12-12T05:23:22.087Z,15.20
2018-12-12T05:25:49.639Z,15.10
2018-12-12T05:28:17.443Z,15.20
2018-12-12T05:30:45.281Z,15.20
2018-12-12T05:33:12.872Z,15.20
2018-12-12T05:35:40.595Z,15.20
2018-12-12T05:38:08.211Z,15.20
2018-12-12T05:40:37.418Z,15.20
2018-12-12T05:43:05.308Z,15.20
2018-12-12T05:45:33.141Z,15.20
2018-12-12T05:48:00.776Z,15.20
2018-12-12T05:50:28.332Z,15.20
2018-12-12T05:52:56.035Z,15.20
2018-12-12T05:55:23.608Z,15.20
2018-12-12T05:57:51.213Z,15.20
2018-12-12T06:00:18.790Z,15.20
2018-12-12T06:02:46.390Z,15.20
2018-12-12T06:05:13.981Z,15.20
2018-12-12T06:07:41.658Z,15.20
2018-12-12T06:10:09.247Z,15.20
2018-12-12T06:12:36.868Z,15.20
2018-12-12T06:15:06.063Z,15.20
2018-12-12T06:17:33.676Z,15.20
2018-12-12T06:20:01.533Z,15.20
2018-12-12T06:22:29.425Z,15.20
2018-12-12T06:24:56.976Z,15.20
2018-12-12T06:27:24.622Z,15.20
2018-12-12T06:29:52.226Z,15.20
2018-12-12T06:32:19.810Z,15.20
2018-12-12T06:34:47.360Z,15.20
2018-12-12T06:37:14.921Z,15.20
2018-12-12T06:39:42.526Z,15.20
2018-12-12T06:42:10.263Z,15.20
2018-12-12T06:44:38.762Z,15.20
2018-12-12T06:47:06.571Z,15.20
2018-12-12T06:49:34.122Z,15.20
2018-12-12T06:52:01.676Z,15.20
2018-12-12T06:54:29.280Z,15.20
2018-12-12T06:56:56.963Z,15.20
2018-12-12T06:59:24.577Z,15.20
2018-12-12T07:01:52.320Z,15.20
2018-12-12T07:04:19.906Z,15.20
2018-12-12T07:06:47.491Z,15.20
2018-12-12T07:09:15.224Z,15.20
2018-12-12T07:11:42.798Z,15.20
2018-12-12T07:14:10.332Z,15.20
2018-12-12T07:16:38.001Z,15.20
2018-12-12T07:19:05.576Z,15.20
2018-12-12T07:21:33.169Z,15.20
2018-12-12T07:24:00.911Z,15.20
2018-12-12T07:26:28.515Z,15.20
2018-12-12T07:28:56.077Z,15.20
2018-12-12T07:31:23.714Z,15.20
2018-12-12T07:33:51.525Z,15.20
2018-12-12T07:36:19.143Z,15.20
2018-12-12T07:38:46.797Z,15.20
2018-12-12T07:41:14.375Z,15.20
2018-12-12T07:43:43.959Z,15.20
2018-12-12T07:46:31.007Z,15.10
2018-12-12T07:49:01.671Z,15.10
2018-12-12T07:51:48.006Z,15.10
2018-12-12T07:54:15.825Z,15.10
2018-12-12T07:56:43.379Z,15.10
2018-12-12T07:59:11.024Z,15.10
2018-12-12T08:01:39.355Z,15.10
2018-12-12T08:04:07.955Z,15.10
2018-12-12T08:06:35.507Z,15.10
2018-12-12T08:09:04.287Z,15.10
2018-12-12T08:11:31.878Z,15.20
2018-12-12T08:13:59.485Z,15.10
2018-12-12T08:16:28.161Z,15.10
2018-12-12T08:18:56.734Z,15.10
2018-12-12T08:21:24.423Z,15.10
2018-12-12T08:23:52.082Z,15.10
2018-12-12T08:26:19.663Z,15.10
2018-12-12T08:28:47.231Z,15.10
2018-12-12T08:31:14.808Z,15.10
2018-12-12T08:33:42.428Z,15.10
2018-12-12T08:36:09.976Z,15.10
2018-12-12T08:38:37.816Z,15.10
2018-12-12T08:41:05.659Z,15.10
2018-12-12T08:43:33.257Z,15.10
2018-12-12T08:46:00.839Z,15.10
2018-12-12T08:48:28.431Z,15.20
2018-12-12T08:50:55.972Z,15.10
2018-12-12T08:53:23.547Z,15.10
2018-12-12T08:55:52.233Z,15.20
2018-12-12T08:58:19.864Z,15.10
2018-12-12T09:00:47.439Z,15.10
2018-12-12T09:03:17.690Z,15.20
2018-12-12T09:05:44.692Z,15.20
2018-12-12T09:08:12.235Z,15.20
2018-12-12T09:10:40.289Z,15.10
2018-12-12T09:13:07.832Z,15.10
2018-12-12T09:15:35.389Z,15.10
2018-12-12T09:18:02.922Z,15.10
2018-12-12T09:20:30.508Z,15.10
2018-12-12T09:22:58.164Z,15.20
2018-12-12T09:25:25.713Z,15.10
2018-12-12T09:27:53.394Z,15.10
2018-12-12T09:30:22.983Z,15.10
2018-12-12T09:32:52.543Z,15.20
2018-12-12T09:35:42.062Z,15.10
2018-12-12T09:38:10.680Z,15.10
2018-12-12T09:40:39.376Z,15.10
2018-12-12T09:43:06.951Z,15.10
2018-12-12T09:45:35.737Z,15.10
2018-12-12T09:48:03.387Z,15.10
2018-12-12T09:50:32.166Z,15.10
2018-12-12T09:53:02.643Z,15.10
2018-12-12T09:55:30.171Z,15.10
2018-12-12T09:57:57.776Z,15.10
2018-12-12T10:00:25.417Z,15.20
2018-12-12T10:02:53.047Z,15.10
2018-12-12T10:05:20.606Z,15.10
2018-12-12T10:07:48.250Z,15.10
2018-12-12T10:10:15.785Z,15.10
2018-12-12T10:12:43.377Z,15.10
2018-12-12T10:15:10.918Z,15.10
2018-12-12T10:17:38.980Z,15.10
2018-12-12T10:20:06.753Z,15.10
2018-12-12T10:22:34.407Z,15.20
2018-12-12T10:25:01.955Z,15.10
2018-12-12T10:27:29.552Z,15.10
2018-12-12T10:29:57.133Z,15.10
2018-12-12T10:32:24.740Z,15.10
2018-12-12T10:34:52.391Z,15.10
2018-12-12T10:37:19.940Z,15.10
2018-12-12T10:39:48.486Z,15.10
2018-12-12T10:42:16.111Z,15.10
2018-12-12T10:44:43.643Z,15.10
2018-12-12T10:47:11.247Z,15.10
2018-12-12T10:49:39.012Z,15.10
2018-12-12T10:52:06.608Z,15.10
2018-12-12T10:54:34.179Z,15.10
2018-12-12T10:57:01.884Z,15.10
2018-12-12T10:59:29.585Z,15.10
2018-12-12T11:02:02.743Z,15.10
2018-12-12T11:04:30.345Z,15.10
2018-12-12T11:06:57.947Z,15.10
2018-12-12T11:09:25.571Z,15.10
2018-12-12T11:11:53.423Z,15.10
2018-12-12T11:14:20.980Z,15.10
2018-12-12T11:16:48.723Z,15.10
2018-12-12T11:19:16.467Z,15.10
2018-12-12T11:21:44.133Z,15.10
2018-12-12T11:24:11.884Z,15.10
2018-12-12T11:26:40.184Z,15.10
2018-12-12T11:29:07.727Z,15.10
2018-12-12T11:31:35.418Z,15.10
2018-12-12T11:34:03.096Z,15.10
2018-12-12T11:36:30.671Z,15.10
2018-12-12T11:38:59.456Z,15.10
2018-12-12T11:41:27.043Z,15.10
2018-12-12T11:43:54.689Z,15.10
2018-12-12T11:46:22.287Z,15.10
2018-12-12T11:48:49.918Z,15.10
2018-12-12T11:51:17.451Z,15.10
2018-12-12T11:53:45.077Z,15.10
2018-12-12T11:56:12.677Z,15.10
2018-12-12T11:58:40.308Z,15.10
2018-12-12T12:01:08.040Z,15.10
2018-12-12T12:03:35.739Z,15.10
2018-12-12T12:06:03.530Z,15.10
2018-12-12T12:08:31.100Z,15.10
2018-12-12T12:10:59.120Z,15.10
2018-12-12T12:13:28.856Z,15.10
2018-12-12T12:15:56.481Z,15.10
2018-12-12T12:18:24.050Z,15.10
2018-12-12T12:20:51.755Z,15.10
2018-12-12T12:23:19.368Z,15.10
2018-12-12T12:25:46.928Z,15.10
2018-12-12T12:28:14.579Z,15.10
2018-12-12T12:30:42.219Z,15.10
2018-12-12T12:33:09.763Z,15.10
2018-12-12T12:35:37.344Z,15.10
2018-12-12T12:38:04.983Z,15.10
2018-12-12T12:40:32.595Z,15.10
2018-12-12T12:43:00.377Z,15.10
2018-12-12T12:45:29.223Z,15.10
2018-12-12T12:47:56.967Z,15.10
2018-12-12T12:50:24.674Z,15.10
2018-12-12T12:52:52.235Z,15.10
2018-12-12T12:55:19.791Z,15.10
2018-12-12T12:57:47.440Z,15.10
2018-12-12T13:00:15.017Z,15.10
2018-12-12T13:02:42.697Z,15.10
2018-12-12T13:05:10.265Z,15.10
2018-12-12T13:07:37.971Z,15.10
2018-12-12T13:10:11.344Z,15.10
2018-12-12T13:12:35.157Z,15.10
2018-12-12T13:15:02.690Z,15.10
2018-12-12T13:17:37.115Z,15.10
2018-12-12T13:20:05.321Z,15.10
2018-12-12T13:22:32.860Z,15.10
2018-12-12T13:25:00.429Z,15.10
2018-12-12T13:27:28.027Z,15.10
2018-12-12T13:29:55.679Z,15.10
2018-12-12T13:32:23.439Z,15.10
2018-12-12T13:34:51.124Z,15.10
2018-12-12T13:37:18.881Z,15.10
2018-12-12T13:39:46.607Z,15.10
2018-12-12T13:42:38.831Z,15.10
2018-12-12T13:45:06.547Z,15.10
2018-12-12T13:47:34.126Z,15.10
2018-12-12T13:50:01.894Z,15.10
2018-12-12T13:52:29.629Z,15.10
2018-12-12T13:54:57.604Z,15.10
2018-12-12T13:57:25.316Z,15.10
2018-12-12T13:59:53.236Z,15.10
2018-12-12T14:02:21.068Z,15.10
2018-12-12T14:04:48.703Z,15.10
2018-12-12T14:07:16.476Z,15.10
2018-12-12T14:09:46.450Z,15.10
2018-12-12T14:12:17.470Z,15.10
2018-12-12T14:14:48.544Z,15.10
2018-12-12T14:17:18.957Z,15.10
2018-12-12T14:19:49.703Z,15.10
2018-12-12T14:22:20.613Z,15.10
2018-12-12T14:24:50.079Z,15.10
2018-12-12T14:27:21.261Z,15.10
2018-12-12T14:29:50.335Z,15.10
2018-12-12T14:32:18.123Z,15.10
2018-12-12T14:34:47.188Z,15.10
2018-12-12T14:37:15.375Z,15.10
2018-12-12T14:39:42.975Z,15.10
2018-12-12T14:42:10.631Z,15.10
2018-12-12T14:44:38.531Z,15.10
2018-12-12T14:47:06.322Z,15.10
2018-12-12T14:49:34.240Z,15.20
2018-12-12T14:52:02.323Z,15.30
2018-12-12T14:54:31.151Z,15.30
2018-12-12T14:57:00.384Z,15.40
2018-12-12T14:59:28.231Z,15.40
2018-12-12T15:01:55.987Z,15.40
2018-12-12T15:04:23.759Z,15.50
2018-12-12T15:06:51.405Z,15.50
2018-12-12T15:09:19.163Z,15.60
2018-12-12T15:11:46.889Z,15.60
2018-12-12T15:14:14.897Z,15.60
2018-12-12T15:16:42.770Z,15.70
2018-12-12T15:19:10.689Z,15.70
2018-12-12T15:21:39.021Z,15.70
2018-12-12T15:24:08.454Z,15.80
2018-12-12T15:26:36.324Z,15.80
2018-12-12T15:29:04.863Z,15.80
2018-12-12T15:31:33.334Z,15.90
2018-12-12T15:34:00.956Z,15.90
2018-12-12T15:36:29.357Z,15.90
2018-12-12T15:38:57.339Z,15.90
2018-12-12T15:41:25.370Z,15.90
2018-12-12T15:43:54.064Z,15.90
2018-12-12T15:46:23.559Z,16.00
2018-12-12T15:48:51.557Z,16.00
2018-12-12T15:51:19.435Z,16.00
2018-12-12T15:53:47.495Z,16.00
2018-12-12T15:56:15.227Z,16.00
2018-12-12T15:58:43.358Z,16.10
2018-12-12T16:01:11.158Z,16.10
2018-12-12T16:03:39.453Z,16.10
2018-12-12T16:06:07.189Z,16.10
2018-12-12T16:08:35.085Z,16.10
2018-12-12T16:11:08.297Z,16.10
2018-12-12T16:13:33.027Z,16.20
2018-12-12T16:16:00.850Z,16.20
2018-12-12T16:18:31.509Z,16.20
2018-12-12T16:21:00.306Z,16.20
2018-12-12T16:23:28.143Z,16.20
2018-12-12T16:25:56.555Z,16.20
2018-12-12T16:28:28.207Z,16.20
2018-12-12T16:30:58.825Z,16.30
2018-12-12T16:33:30.337Z,16.30
2018-12-12T16:36:03.848Z,16.30
2018-12-12T16:38:31.899Z,16.30
2018-12-12T16:41:00.549Z,16.40
2018-12-12T16:43:28.847Z,16.40
2018-12-12T16:46:01.358Z,16.50
2018-12-12T16:48:29.361Z,16.50
2018-12-12T16:50:57.723Z,16.50
2018-12-12T16:53:26.044Z,16.60
2018-12-12T16:55:54.013Z,16.60
2018-12-12T16:58:22.635Z,16.60
2018-12-12T17:00:50.329Z,16.70
2018-12-12T17:03:19.249Z,16.70
2018-12-12T17:05:49.155Z,16.80
2018-12-12T17:08:19.069Z,16.80
2018-12-12T17:10:47.813Z,16.80
2018-12-12T17:13:17.078Z,16.90
2018-12-12T17:15:46.307Z,16.90
2018-12-12T17:18:16.191Z,16.90
2018-12-12T17:20:45.862Z,16.90
2018-12-12T17:23:14.544Z,16.90
2018-12-12T17:25:43.288Z,16.90
2018-12-12T17:28:11.435Z,16.90
2018-12-12T17:30:39.318Z,17.00
2018-12-12T17:33:07.056Z,17.00
2018-12-12T17:35:34.724Z,17.00
2018-12-12T17:38:02.564Z,17.00
2018-12-12T17:40:30.333Z,17.00
2018-12-12T17:42:59.129Z,16.90
2018-12-12T17:45:29.124Z,16.90
2018-12-12T17:47:57.830Z,16.80
2018-12-12T17:50:27.777Z,16.70
2018-12-12T17:52:58.301Z,16.70
2018-12-12T17:55:29.399Z,16.60
2018-12-12T17:57:58.747Z,16.60
2018-12-12T18:00:26.795Z,16.50
2018-12-12T18:02:56.568Z,16.50
2018-12-12T18:05:42.091Z,16.40
2018-12-12T18:08:09.691Z,16.40
2018-12-12T18:10:38.239Z,16.30
2018-12-12T18:13:06.052Z,16.30
2018-12-12T18:15:35.716Z,16.30
2018-12-12T18:18:05.451Z,16.30
2018-12-12T18:20:33.615Z,16.20
2018-12-12T18:23:01.176Z,16.20
2018-12-12T18:25:31.410Z,16.20
2018-12-12T18:27:59.298Z,16.20
2018-12-12T18:30:27.028Z,16.20
2018-12-12T18:32:57.134Z,16.20
2018-12-12T18:35:41.884Z,16.20
2018-12-12T18:38:09.547Z,16.10
2018-12-12T18:40:37.307Z,16.10
2018-12-12T18:43:06.907Z,16.10
2018-12-12T18:45:34.487Z,16.00
2018-12-12T18:48:02.141Z,16.10
2018-12-12T18:50:31.755Z,16.10
2018-12-12T18:53:18.153Z,16.00
2018-12-12T18:55:45.810Z,16.00
2018-12-12T18:58:13.647Z,16.00
2018-12-12T19:00:41.510Z,16.00
2018-12-12T19:03:09.183Z,16.00
2018-12-12T19:05:37.011Z,16.00
2018-12-12T19:08:05.605Z,16.00
2018-12-12T19:10:33.207Z,16.00
2018-12-12T19:13:01.073Z,15.90
2018-12-12T19:15:28.722Z,15.90
2018-12-12T19:17:56.572Z,15.90
2018-12-12T19:20:25.852Z,15.90
2018-12-12T19:22:54.917Z,15.90
2018-12-12T19:25:22.807Z,15.90
2018-12-12T19:27:50.577Z,15.90
2018-12-12T19:30:18.302Z,15.90
2018-12-12T19:32:46.073Z,15.90
2018-12-12T19:35:13.703Z,15.90
2018-12-12T19:37:41.243Z,15.90
2018-12-12T19:40:08.927Z,15.90
2018-12-12T19:42:36.623Z,15.90
2018-12-12T19:45:06.000Z,15.90
2018-12-12T19:47:33.664Z,15.90
2018-12-12T19:50:01.308Z,15.90
2018-12-12T19:52:29.192Z,15.90
2018-12-12T19:54:56.828Z,15.80
2018-12-12T19:57:24.436Z,15.80
2018-12-12T19:59:51.963Z,15.80
2018-12-12T20:02:19.595Z,15.80
2018-12-12T20:04:47.256Z,15.80
2018-12-12T20:07:15.096Z,15.80
2018-12-12T20:09:42.790Z,15.80
2018-12-12T20:12:10.611Z,15.80
2018-12-12T20:14:38.841Z,15.80
2018-12-12T20:17:09.661Z,15.80
2018-12-12T20:19:38.312Z,15.80
2018-12-12T20:22:05.921Z,15.80
2018-12-12T20:24:33.515Z,15.80
2018-12-12T20:27:03.280Z,15.80
2018-12-12T20:29:33.741Z,15.80
2018-12-12T20:32:03.266Z,15.80
2018-12-12T20:34:31.568Z,15.80
2018-12-12T20:36:59.337Z,15.70
2018-12-12T20:39:27.403Z,15.70
2018-12-12T20:41:57.336Z,15.70
2018-12-12T20:44:28.614Z,15.70
2018-12-12T20:46:57.731Z,15.70
2018-12-12T20:49:26.799Z,15.70
2018-12-12T20:51:57.394Z,15.70
2018-12-12T20:54:28.828Z,15.70
2018-12-12T20:57:00.635Z,15.70
2018-12-12T20:59:30.111Z,15.70
2018-12-12T21:02:01.402Z,15.70
2018-12-12T21:04:31.668Z,15.70
2018-12-12T21:07:00.837Z,15.70
2018-12-12T21:09:32.773Z,15.70
2018-12-12T21:12:02.704Z,15.70
2018-12-12T21:14:33.867Z,15.70
2018-12-12T21:17:04.012Z,15.70
2018-12-12T21:22:12.421Z,15.70
2018-12-12T21:24:44.309Z,15.70
2018-12-12T21:27:31.196Z,15.70
2018-12-12T21:30:00.660Z,15.70
2018-12-12T21:32:31.357Z,15.70
2018-12-12T21:35:03.350Z,15.70
2018-12-12T21:37:35.398Z,15.60
2018-12-12T21:40:05.400Z,15.60
2018-12-12T21:42:33.202Z,15.60
2018-12-12T21:45:00.825Z,15.60
2018-12-12T21:47:28.455Z,15.70
2018-12-12T21:49:56.061Z,15.60
2018-12-12T21:52:23.909Z,15.60
2018-12-12T21:54:51.527Z,15.60
2018-12-12T21:57:19.474Z,15.60
2018-12-12T21:59:47.162Z,15.60
2018-12-12T22:02:14.718Z,15.60
2018-12-12T22:04:42.319Z,15.60
2018-12-12T22:07:09.931Z,15.60
2018-12-12T22:09:37.996Z,15.60
2018-12-12T22:12:05.607Z,15.60
2018-12-12T22:14:33.316Z,15.60
2018-12-12T22:17:01.211Z,15.70
2018-12-12T22:19:28.799Z,15.60
2018-12-12T22:21:56.627Z,15.60
2018-12-12T22:24:24.217Z,15.60
2018-12-12T22:26:51.835Z,15.60
2018-12-12T22:29:19.621Z,15.60
2018-12-12T22:31:47.214Z,15.60
2018-12-12T22:34:14.844Z,15.60
2018-12-12T22:36:42.517Z,15.60
2018-12-12T22:39:10.508Z,15.60
2018-12-12T22:41:39.481Z,15.60
2018-12-12T22:44:07.050Z,15.60
2018-12-12T22:46:34.696Z,15.60
2018-12-12T22:49:02.450Z,15.60
2018-12-12T22:51:30.072Z,15.60
2018-12-12T22:53:57.675Z,15.60
2018-12-12T22:56:25.435Z,15.60
2018-12-12T22:58:53.414Z,15.50
2018-12-12T23:01:24.263Z,15.60
2018-12-12T23:03:52.108Z,15.60
2018-12-12T23:06:20.528Z,15.60
2018-12-12T23:08:48.625Z,15.60
2018-12-12T23:11:16.158Z,15.60
2018-12-12T23:13:43.775Z,15.60
2018-12-12T23:16:11.644Z,15.60
2018-12-12T23:18:39.484Z,15.50
2018-12-12T23:21:07.095Z,15.60
2018-12-12T23:23:34.754Z,15.60
2018-12-12T23:26:02.538Z,15.60
2018-12-12T23:28:30.215Z,15.60
2018-12-12T23:30:57.892Z,15.50
2018-12-12T23:33:25.526Z,15.60
2018-12-12T23:35:53.091Z,15.60
2018-12-12T23:38:20.704Z,15.60
2018-12-12T23:40:48.606Z,15.50
2018-12-12T23:43:16.481Z,15.60
2018-12-12T23:45:45.501Z,15.50
2018-12-12T23:48:13.252Z,15.50
2018-12-12T23:50:40.986Z,15.50
2018-12-12T23:53:08.539Z,15.50
2018-12-12T23:55:36.109Z,15.50
2018-12-12T23:58:03.879Z,15.50
